Pangborn Memorial Airport
KEAT : now visible

Airfield :











YOU CAN JOIN US ON...

 
LOGIN :

Register | Disclaimer

   EN    FR    IT 

 









Legend :    VFR   Marginal VFR   IFR   Intensive IFR   Very Intensive IFR
Visi :
Ceiling :
>= 8 km
>= 3000ft
5 to 8 km
1000 to 3000 ft
1500m to 5 km
500 to 1000 ft
800 to 1500m
200 to 500 ft
< 800m
< 200 ft
Symbols :   Thunderstorms  Fog  Heavy snow  Heavy precipitations  Wind > 20 kt







- Airport Elevation : 1249 ft


KEAT - Pangborn Memorial

CURRENT METAR :
  • 181755Z AUTO 21003KT 10SM SCT012 OVC085 14/11 A2984 RMK AO2 SLP104 T01440111 10144 20111 51007

EXPIRED METARs :
  • 181655Z AUTO 22003KT 10SM SCT013 BKN090 13/11 A2983 RMK AO2 SLP101 T01330106
  • 181555Z AUTO 31005KT 10SM BKN011 13/11 A2982 RMK AO2 SLP097 T01280106
  • 181538Z AUTO 31004KT 10SM FEW007 BKN013 BKN060 12/11 A2982 RMK AO2 T01220106
  • 181532Z AUTO 30004KT 10SM SCT013 SCT060 12/11 A2982 RMK AO2 T01220106

TAF KEAT
Valid from the 18 at 18:00 until the 19 at 18:00 UTC


181735Z 1818/1918 VRB04KT P6SM BKN025 BKN070
FM181900 25005KT P6SM BKN035 BKN080
FM182100 26005KT P6SM VCSH BKN040 BKN080
FM190100 32010KT P6SM SCT050 BKN080
FM190700 32006KT P6SM FEW060
No reported NOTAMs for that airfield.



MET'MAP, your aeronautical weather chart ! - Copyright ORBIFLY December 2007 - Disclaimer

ORBIFLY MET'MAP TEAM :

Programming & Development : Alexandra Zaïnal
Concept & Development : Baudouin d'Aumeries
Co-Development & Prog : Marc-Olivier Méhu
Technical & hardware support : Manuel Goepfert

Contact : metmap@orbifly.com




SOURCES & CREDITS :

   NOAA       Earth
Advisory